Historyczne dane pomiarowe

Dodano dane terminowe – wersja testowa.

Dane z okresu 1951-2019

Wersja bazy: 1.34 [2019-03-16, lista zmian], aktualizacja planowana na 2019-04-15

Dane meteo z obszaru Polski uzyskane na podstawie danych udostępnionych przez Instytut Meteorologii i Gospodarki Wodnej – Państwowy Instytut Badawczy.

 

Wybierz Datę:    

       

TemperaturaWilgotnośćWiatrCiśnienieOpadyŚniegCzas trwania zjawisk
 Stacja t tx tn tng RH VA  wxwx mslp ppp RRR   cm mm wxwxwxwxwxwxwx
1987-08-14 13.1 18.4 8.0 4.1 91.8- 5.0 3.0---- 0.0------------
1987-08-13 13.4 19.8 7.1 9.0 80.8- 5.3 1.7---- 0.0------------
1987-08-12 12.1 17.1 8.2 6.0 83.3- 6.0 3.0---- 4.5------------
1987-08-11 12.9 17.1 11.1 4.1 93.3- 5.7 4.0---- 9.1------------
1987-08-10 14.6 19.0 12.3 11.0 81.0- 5.7 2.3---- 8.0------------
1987-08-09 13.4 20.6 8.8 5.6 80.0- 5.0 2.3---- 0.0------------
1987-08-08 13.4 20.5 5.9 2.2 68.5- 3.7 3.7---- 0.3------------
1987-08-07 11.0 17.1 9.8 4.6 82.0- 4.0 3.0---- 3.5------------
1987-08-06 11.5 15.4 9.7 8.0 92.0- 6.3 4.3---- 2.7------------
1987-08-05 10.9 14.3 8.1 6.1 90.3- 6.7 4.0---- 7.5------------
1987-08-04 11.3 15.0 9.3 7.6 96.3- 4.3 1.0---- 10.1------------
1987-08-03 12.7 16.5 8.7 6.6 86.3- 5.3 4.0---- 4.5------------
1987-08-02 13.7 18.1 8.2 6.1 90.3- 5.3 4.7---- 0.5------------
1987-08-01 15.0 18.1 12.8 8.3 87.5- 6.3 4.0---- 0.9------------
1987-07-31 14.6 18.8 13.4 12.0 90.5- 7.0 2.3---- 15.0------------
1987-07-30 15.7 20.0 7.7 4.1 88.5- 5.7 1.3---- 0.0------------
1987-07-29 14.6 17.8 11.0 9.1 76.0- 4.0 3.7---- 0.0------------
1987-07-28 14.6 18.0 10.4 8.0 85.0- 5.0 4.7---- 0.0------------
1987-07-27 11.5 15.0 9.0 6.9 84.0- 4.7 5.3---- 0.0------------
1987-07-26 13.4 18.7 8.2 5.6 75.3- 4.3 4.3---- 0.0------------
1987-07-25 14.5 18.5 12.7 10.4 79.3- 4.7 3.3---- 0.0------------
1987-07-24 18.6 22.5 13.7 11.0 79.3- 4.0 3.0---- 0.0------------
1987-07-23 19.2 24.5 14.2 11.4 85.8- 6.0 1.0---- 0.0------------
1987-07-22 18.9 24.1 14.2 12.5 88.3- 5.7 1.0---- 0.0------------
1987-07-21 19.8 26.5 10.6 8.6 77.5- 3.0 1.7---- 2.0------------
1987-07-20 16.6 19.1 14.6 13.6 93.5- 6.0 1.3---- 11.5------------
1987-07-19 17.0 24.6 15.2 14.4 91.5- 8.0 1.0---- 9.2------------
1987-07-18 22.0 27.5 10.7 11.5 79.8- 4.0 2.3---- 2.0------------
1987-07-17 19.6 26.0 11.9 8.5 68.5- 4.7 3.0---- 0.0------------
1987-07-16 16.6 22.1 10.1 7.5 74.8- 5.0 3.0---- 0.0------------
1987-07-15 17.1 22.5 7.0 4.3 70.3- 0.7 3.0---- 0.0------------
1987-07-14 16.8 20.5 10.1 7.8 69.3- 1.3 2.7---- 0.0------------
1987-07-13 15.4 18.8 11.1 9.0 75.0- 4.3 4.7---- 4.3------------
1987-07-12 16.5 19.2 14.9 13.5 94.0- 5.0 3.7---- 3.5------------
1987-07-11 12.0 15.0 8.0 5.5 96.0- 8.0 1.0---- 10.0------------
1987-07-10 11.7 15.6 8.8 6.8 84.5- 4.7 3.0---- 0.0------------
1987-07-09 15.3 21.0 12.2 10.4 84.0- 4.0 3.0---- 3.5------------
1987-07-08 20.5 28.7 11.6 7.3 73.5- 4.3 2.3---- 0.0------------
1987-07-07 20.3 27.5 9.1 5.6 56.8- 0.3 1.7---- 0.0------------
1987-07-06 17.4 26.2 4.3 0.7 62.3- 0.0 1.7---- 0.0------------
1987-07-05 17.5 23.7 7.2 2.2 64.0- 1.0 2.0---- 0.0------------
1987-07-04 16.5 21.5 11.9 10.0 68.3- 4.3 3.3---- 0.0------------
1987-07-03 16.6 24.0 5.5 1.2 68.5- 2.3 2.3---- 0.0------------
1987-07-02 17.5 23.0 8.8 4.5 65.5- 2.0 2.0---- 0.0------------
1987-07-01 23.1 29.3 13.2 14.5 85.3- 5.3 4.0---- 0.0------------
1987-06-30 22.0 29.0 7.6 7.4 77.5- 4.3 2.7---- 0.0------------
1987-06-29 15.6 22.0 7.3 4.1 88.8- 5.0 2.7---- 0.0------------
1987-06-28 15.5 20.5 12.2 9.1 70.8- 4.7 3.0---- 2.2------------
1987-06-27 17.2 20.6 12.3 9.5 60.8- 4.0 3.0---- 0.0------------
1987-06-26 15.0 22.6 6.3 7.1 77.0- 4.7 2.7---- 0.0------------
1987-06-25 12.8 16.5 9.9 8.0 77.0- 5.0 3.3---- 0.0------------
1987-06-24 14.3 18.0 11.3 9.2 77.0- 4.3 2.7---- 0.0------------
1987-06-23 14.5 21.6 10.7 7.5 81.0- 6.0 1.0---- 0.0------------
1987-06-22 15.0 23.6 11.7 7.0 79.8- 6.7 3.0---- 0.0------------
1987-06-21 18.8 23.6 11.7 7.0 62.5- 5.3 2.0---- 0.9------------
1987-06-20 14.6 21.5 6.1 2.6 83.3- 4.7 2.7---- 0.0------------
1987-06-19 11.0 16.0 8.3 6.5 81.5- 6.0 4.3---- 4.1------------
1987-06-18 10.2 17.7 6.9 2.6 82.5- 3.0 4.7---- 2.5------------
1987-06-17 11.3 14.5 9.7 8.3 70.3- 3.7 5.7---- 0.0------------
1987-06-16 11.5 15.5 8.8 8.0 87.3- 7.7 4.3---- 8.3------------
402.2 ms

 

Źródłem pochodzenia danych jest Instytut Meteorologii i Gospodarki Wodnej – Państwowy Instytut Badawczy. Dane Instytutu Meteorologii i Gospodarki Wodnej – Państwowego Instytutu Badawczego zostały przetworzone.

Dane źródłowe można odnaleźć na stronie https://dane.imgw.pl